Time;durP1;ratioP1;P1;durP2;ratioP2;P2;SDS_P1;SDS_P2;PMS_P1;PMS_P2;Temp;Humidity;BMP_temperature;BMP_pressure;BME280_temperature;BME280_humidity;BME280_pressure;Samples;Min_cycle;Max_cycle;Signal;HPM_P1;HPM_P2
2022/11/09 00:01:48;;;;;;;1.80;1.33;;;17.10;63.90;;;;;;5035417;28;20048;-53
2022/11/09 00:04:22;;;;;;;1.53;1.10;;;17.10;63.80;;;;;;5042266;28;20124;-51
2022/11/09 00:06:54;;;;;;;1.52;0.90;;;17.10;63.80;;;;;;5049689;28;20072;-53
2022/11/09 00:09:24;;;;;;;1.40;1.30;;;17.10;64.00;;;;;;5035608;28;20099;-53
2022/11/09 00:11:53;;;;;;;2.00;1.17;;;17.10;64.00;;;;;;5024725;28;20052;-53
2022/11/09 00:14:28;;;;;;;1.63;1.02;;;17.10;64.00;;;;;;5039245;28;20413;-53
2022/11/09 00:17:04;;;;;;;1.85;1.35;;;17.00;64.00;;;;;;5022650;28;20056;-52
2022/11/09 00:19:31;;;;;;;1.63;0.98;;;17.10;64.00;;;;;;5033012;28;20045;-53
2022/11/09 00:21:59;;;;;;;2.33;1.08;;;17.10;64.00;;;;;;5039531;28;20068;-50
2022/11/09 00:24:25;;;;;;;1.85;1.00;;;17.00;64.10;;;;;;5030560;28;20045;-53
2022/11/09 00:26:57;;;;;;;1.00;0.82;;;17.00;64.10;;;;;;5028031;28;20056;-53
2022/11/09 00:29:30;;;;;;;1.00;0.90;;;17.00;64.10;;;;;;5030853;28;20121;-53
2022/11/09 00:31:56;;;;;;;1.02;0.90;;;17.00;64.20;;;;;;5041820;28;20063;-53
2022/11/09 00:34:24;;;;;;;1.73;1.00;;;17.00;64.20;;;;;;5027596;28;20049;-53
2022/11/09 00:36:51;;;;;;;1.60;1.08;;;16.90;64.20;;;;;;5035953;28;20087;-51
2022/11/09 00:39:17;;;;;;;1.13;0.98;;;17.00;64.20;;;;;;5044196;28;20044;-51
2022/11/09 00:41:47;;;;;;;3.15;1.25;;;16.90;64.20;;;;;;5049753;28;20045;-53
2022/11/09 00:44:16;;;;;;;1.15;0.75;;;16.90;64.30;;;;;;5034436;28;20051;-52
2022/11/09 00:46:45;;;;;;;3.72;0.80;;;16.90;64.30;;;;;;5031208;28;20160;-53
2022/11/09 00:49:16;;;;;;;2.13;1.20;;;16.90;64.30;;;;;;5030441;28;20037;-53
2022/11/09 00:51:43;;;;;;;3.25;1.58;;;16.90;64.30;;;;;;5038251;28;20500;-53
2022/11/09 00:54:12;;;;;;;1.58;1.35;;;16.90;64.20;;;;;;5048905;28;20123;-53
2022/11/09 00:56:42;;;;;;;2.63;1.15;;;16.90;64.20;;;;;;5025182;28;20068;-53
2022/11/09 00:59:12;;;;;;;2.08;1.02;;;16.80;64.20;;;;;;5037542;28;20045;-52
2022/11/09 01:01:39;;;;;;;0.98;0.90;;;16.90;64.20;;;;;;5046197;28;20549;-53
2022/11/09 01:04:06;;;;;;;1.27;0.80;;;16.90;64.20;;;;;;5034524;28;20049;-52
2022/11/09 01:06:32;;;;;;;1.00;0.90;;;16.80;64.10;;;;;;5031989;28;20041;-51
2022/11/09 01:09:04;;;;;;;2.42;1.40;;;16.80;64.10;;;;;;5040403;28;20049;-53
2022/11/09 01:11:31;;;;;;;1.70;1.15;;;16.80;64.00;;;;;;5047458;28;20057;-50
2022/11/09 01:14:01;;;;;;;2.53;0.80;;;16.80;64.10;;;;;;5035219;28;20045;-52
2022/11/09 01:16:30;;;;;;;3.75;1.27;;;16.80;64.00;;;;;;5034719;28;20045;-51
2022/11/09 01:18:57;;;;;;;2.00;1.55;;;16.80;64.00;;;;;;5038370;28;20095;-53
2022/11/09 01:21:26;;;;;;;1.48;0.60;;;16.80;64.00;;;;;;5039686;28;20650;-53
2022/11/09 01:24:00;;;;;;;1.88;1.15;;;16.80;64.00;;;;;;5025638;28;20446;-53
2022/11/09 01:26:29;;;;;;;1.58;0.85;;;16.70;63.90;;;;;;5038090;28;20068;-52
2022/11/09 01:29:03;;;;;;;2.85;1.08;;;16.70;63.90;;;;;;5042965;28;20049;-53
2022/11/09 01:31:32;;;;;;;3.15;1.20;;;16.70;63.90;;;;;;5048667;28;20029;-53
2022/11/09 01:34:00;;;;;;;4.28;0.73;;;16.70;63.90;;;;;;5030296;28;20049;-52
2022/11/09 01:36:27;;;;;;;2.08;0.90;;;16.70;63.90;;;;;;5037488;28;20614;-50
2022/11/09 01:38:59;;;;;;;2.17;0.98;;;16.70;63.90;;;;;;5049849;28;20386;-52
2022/11/09 01:41:27;;;;;;;2.65;0.80;;;16.70;63.90;;;;;;5038289;28;20580;-52
2022/11/09 01:44:07;;;;;;;1.95;0.70;;;16.70;63.90;;;;;;5032225;28;20044;-53
2022/11/09 01:46:50;;;;;;;3.85;0.90;;;16.60;63.90;;;;;;5036710;28;20153;-53
2022/11/09 01:49:40;;;;;;;3.03;0.93;;;16.60;63.90;;;;;;5051309;28;20091;-52
2022/11/09 01:52:14;;;;;;;2.63;0.80;;;16.70;64.00;;;;;;5034469;28;20069;-52
2022/11/09 01:54:52;;;;;;;5.00;1.20;;;16.60;63.90;;;;;;5042243;28;20406;-53
2022/11/09 01:57:32;;;;;;;1.23;0.95;;;16.60;63.90;;;;;;5046687;28;20049;-53
2022/11/09 02:00:08;;;;;;;1.63;0.90;;;16.50;63.90;;;;;;5041607;28;20519;-52
2022/11/09 02:02:54;;;;;;;;;;;16.50;64.00;;;;;;5012742;28;20080;-53
2022/11/09 02:05:25;;;;;;;2.28;1.20;;;16.50;63.90;;;;;;5039713;28;20528;-53
2022/11/09 02:07:57;;;;;;;;;;;16.50;64.40;;;;;;5028266;28;20506;-53
2022/11/09 02:10:42;;;;;;;4.63;0.88;;;16.50;63.70;;;;;;5022490;28;20397;-52
2022/11/09 02:13:15;;;;;;;2.78;0.80;;;16.50;63.60;;;;;;5048235;28;20046;-51
2022/11/09 02:15:43;;;;;;;4.03;1.00;;;16.40;63.70;;;;;;5047031;28;20045;-52
2022/11/09 02:18:16;;;;;;;5.18;1.15;;;16.40;63.70;;;;;;5034834;28;20029;-52
2022/11/09 02:20:45;;;;;;;1.92;1.25;;;16.40;63.90;;;;;;5038441;28;20041;-53
2022/11/09 02:23:12;;;;;;;2.05;0.68;;;16.40;63.90;;;;;;5044656;28;20044;-53
2022/11/09 02:25:47;;;;;;;3.72;0.98;;;16.40;63.90;;;;;;5033359;28;20636;-52
2022/11/09 02:28:15;;;;;;;;;;;16.30;63.90;;;;;;5032281;28;20045;-53
2022/11/09 02:30:51;;;;;;;2.40;1.10;;;16.40;64.00;;;;;;5044448;28;19968;-53
2022/11/09 02:33:18;;;;;;;1.20;0.70;;;16.30;63.80;;;;;;5046037;28;20045;-52
2022/11/09 02:35:48;;;;;;;2.03;0.90;;;16.40;63.90;;;;;;5051942;28;20041;-52
2022/11/09 02:38:24;;;;;;;4.45;0.90;;;16.30;63.90;;;;;;5035361;28;20051;-53
2022/11/09 02:40:56;;;;;;;1.10;0.80;;;16.30;64.00;;;;;;5040312;28;20044;-53
2022/11/09 02:43:22;;;;;;;2.35;0.82;;;16.30;64.00;;;;;;5046555;28;20060;-53
2022/11/09 02:45:53;;;;;;;4.43;1.10;;;16.30;64.00;;;;;;5050383;28;20045;-53
2022/11/09 02:48:26;;;;;;;1.35;0.90;;;16.30;64.00;;;;;;5036045;28;20519;-53
2022/11/09 02:50:52;;;;;;;2.97;0.98;;;16.30;64.00;;;;;;5040444;28;20116;-53
2022/11/09 02:53:19;;;;;;;2.88;0.95;;;16.30;64.00;;;;;;5032161;28;20049;-53
2022/11/09 02:55:48;;;;;;;3.42;1.10;;;16.30;64.00;;;;;;5029811;28;20073;-53
2022/11/09 02:58:18;;;;;;;8.55;1.10;;;16.40;64.10;;;;;;5026475;28;20052;-53
2022/11/09 03:00:47;;;;;;;2.28;1.02;;;16.30;64.10;;;;;;5042544;28;20132;-53
2022/11/09 03:03:15;;;;;;;4.07;1.10;;;16.40;64.10;;;;;;5045094;28;20063;-53
2022/11/09 03:05:43;;;;;;;2.92;0.95;;;16.40;64.20;;;;;;5048449;28;20049;-53
2022/11/09 03:08:15;;;;;;;3.58;1.23;;;16.40;64.20;;;;;;5010721;28;20169;-53
2022/11/09 03:10:44;;;;;;;3.50;1.13;;;16.40;64.20;;;;;;5056272;28;20072;-53
2022/11/09 03:13:14;;;;;;;5.70;0.90;;;16.50;64.30;;;;;;5049912;28;20045;-52
2022/11/09 03:15:46;;;;;;;2.08;0.93;;;16.50;64.20;;;;;;5043429;28;20128;-53
2022/11/09 03:18:17;;;;;;;4.22;0.88;;;16.50;64.20;;;;;;5045486;22;20037;-48
2022/11/09 03:20:46;;;;;;;3.90;1.42;;;16.50;64.10;;;;;;5040163;28;20409;-48
2022/11/09 03:23:15;;;;;;;2.88;1.17;;;16.50;64.10;;;;;;5037370;28;20038;-48
2022/11/09 03:25:42;;;;;;;3.08;0.90;;;16.60;64.00;;;;;;5031158;28;20038;-48
2022/11/09 03:28:11;;;;;;;3.10;0.98;;;16.60;63.90;;;;;;5022481;28;20041;-50
2022/11/09 03:30:40;;;;;;;1.02;0.63;;;16.60;63.90;;;;;;5033843;28;20050;-50
2022/11/09 03:33:09;;;;;;;3.25;1.33;;;16.60;64.00;;;;;;5037933;28;20040;-48
2022/11/09 03:35:37;;;;;;;2.55;1.05;;;16.50;64.00;;;;;;5027013;28;20042;-49
2022/11/09 03:38:06;;;;;;;5.38;1.08;;;16.60;64.00;;;;;;5043825;28;20077;-49
2022/11/09 03:40:34;;;;;;;1.88;0.98;;;16.60;64.10;;;;;;5047335;28;20052;-49
2022/11/09 03:43:01;;;;;;;2.63;0.90;;;16.60;64.10;;;;;;5040877;28;20624;-48
2022/11/09 03:45:28;;;;;;;3.33;1.17;;;16.60;64.70;;;;;;5043990;28;20040;-49
2022/11/09 03:47:59;;;;;;;3.60;0.80;;;16.60;64.00;;;;;;5027177;28;20059;-48
2022/11/09 03:50:27;;;;;;;2.28;0.88;;;16.60;64.10;;;;;;5042067;28;20577;-52
2022/11/09 03:52:56;;;;;;;3.13;1.10;;;16.70;64.10;;;;;;5037156;28;20140;-49
2022/11/09 03:55:26;;;;;;;2.38;0.77;;;16.70;64.00;;;;;;5031581;28;20088;-50
2022/11/09 03:57:55;;;;;;;4.05;0.88;;;16.70;63.90;;;;;;5031258;28;20033;-49
2022/11/09 04:00:25;;;;;;;3.63;0.80;;;16.70;63.90;;;;;;5031224;28;20125;-48
2022/11/09 04:02:55;;;;;;;4.05;1.10;;;16.70;63.90;;;;;;5030494;28;20036;-48
2022/11/09 04:05:22;;;;;;;3.22;0.90;;;16.80;64.60;;;;;;5041626;28;20523;-49
2022/11/09 04:07:53;;;;;;;3.28;1.10;;;16.80;63.90;;;;;;5042106;28;20049;-48
2022/11/09 04:10:23;;;;;;;2.00;0.65;;;16.80;63.90;;;;;;5040492;28;20410;-48
2022/11/09 04:12:50;;;;;;;3.63;0.70;;;16.80;63.90;;;;;;5033418;28;20512;-48
2022/11/09 04:15:16;;;;;;;3.67;0.90;;;16.80;64.00;;;;;;5040912;28;20041;-51
2022/11/09 04:17:46;;;;;;;3.58;0.77;;;16.80;64.10;;;;;;5028988;28;20051;-48
2022/11/09 04:20:12;;;;;;;1.35;0.80;;;16.80;64.10;;;;;;5030239;28;20045;-49
2022/11/09 04:22:41;;;;;;;3.75;0.90;;;16.90;64.40;;;;;;5030476;28;20049;-50
2022/11/09 04:25:10;;;;;;;2.25;1.00;;;16.90;64.50;;;;;;5044757;28;20079;-48
2022/11/09 04:27:38;;;;;;;2.97;0.90;;;16.90;64.70;;;;;;5048248;28;20140;-48
2022/11/09 04:30:07;;;;;;;3.05;1.10;;;16.90;65.30;;;;;;5041218;28;20037;-48
2022/11/09 04:32:34;;;;;;;2.65;1.23;;;16.80;64.70;;;;;;5022795;28;20060;-49
2022/11/09 04:35:05;;;;;;;2.33;0.73;;;16.80;64.80;;;;;;5031352;28;20092;-50
2022/11/09 04:37:32;;;;;;;1.27;0.82;;;16.80;64.80;;;;;;5046627;28;20445;-48
2022/11/09 04:40:02;;;;;;;2.50;1.00;;;16.80;64.90;;;;;;5042066;28;20046;-48
2022/11/09 04:42:28;;;;;;;3.45;1.10;;;16.80;64.80;;;;;;5041344;28;20045;-49
2022/11/09 04:44:59;;;;;;;2.28;0.95;;;16.80;64.80;;;;;;5037716;28;20045;-48
2022/11/09 04:47:26;;;;;;;3.42;1.23;;;16.80;64.80;;;;;;5029530;28;20413;-48
2022/11/09 04:49:54;;;;;;;2.10;0.90;;;16.80;64.80;;;;;;5023709;28;20037;-48
2022/11/09 04:52:20;;;;;;;4.72;1.13;;;16.80;64.90;;;;;;5040351;28;20040;-50
2022/11/09 04:54:47;;;;;;;2.72;0.90;;;16.80;64.90;;;;;;5041150;28;20119;-48
2022/11/09 04:57:14;;;;;;;2.30;0.65;;;16.80;64.80;;;;;;5049331;28;20129;-48
2022/11/09 04:59:40;;;;;;;4.43;1.55;;;16.80;64.80;;;;;;5038015;28;20410;-48
2022/11/09 05:02:07;;;;;;;2.90;1.25;;;16.80;64.80;;;;;;5039681;28;20056;-48
2022/11/09 05:04:36;;;;;;;5.13;1.00;;;16.80;64.80;;;;;;5041488;28;20036;-48
2022/11/09 05:07:05;;;;;;;3.33;1.05;;;16.80;64.80;;;;;;5041990;28;20042;-49
2022/11/09 05:09:37;;;;;;;1.67;0.70;;;16.80;64.80;;;;;;5023034;28;20046;-48
2022/11/09 05:12:10;;;;;;;3.58;1.08;;;16.80;64.80;;;;;;5040643;28;20048;-48
2022/11/09 05:14:39;;;;;;;8.63;1.95;;;16.80;64.80;;;;;;5047334;28;20106;-51
2022/11/09 05:17:08;;;;;;;3.35;1.10;;;16.80;64.80;;;;;;5033720;28;20053;-51
2022/11/09 05:19:35;;;;;;;2.47;0.88;;;16.80;64.80;;;;;;5029717;28;20033;-48
2022/11/09 05:23:57;;;;;;;4.65;1.10;;;16.80;65.50;;;;;;5032196;28;20128;-49
2022/11/09 05:24:50;;;;;;;2.92;0.90;;;16.80;65.00;;;;;;5034306;28;20525;-53
2022/11/09 05:27:17;;;;;;;1.98;0.70;;;16.80;65.10;;;;;;5021520;28;20073;-48
2022/11/09 05:29:44;;;;;;;1.10;0.77;;;16.70;64.90;;;;;;5040343;28;20448;-49
2022/11/09 05:32:10;;;;;;;2.65;0.90;;;16.70;65.00;;;;;;5044449;28;20036;-48
2022/11/09 05:34:38;;;;;;;3.05;0.77;;;16.70;65.00;;;;;;5051222;28;20165;-48
2022/11/09 05:37:04;;;;;;;1.95;0.80;;;16.70;65.00;;;;;;5028480;28;20033;-50
2022/11/09 05:39:31;;;;;;;4.47;0.90;;;16.70;65.10;;;;;;5043912;28;20046;-50
2022/11/09 05:41:58;;;;;;;3.50;1.65;;;16.70;65.20;;;;;;5033642;28;20046;-51
2022/11/09 05:44:24;;;;;;;2.67;0.95;;;16.70;65.20;;;;;;5021181;28;20038;-48
2022/11/09 05:46:51;;;;;;;4.18;0.90;;;16.60;65.30;;;;;;5034294;28;20041;-51
2022/11/09 05:49:18;;;;;;;2.05;0.90;;;16.60;65.30;;;;;;5033935;28;20045;-48
2022/11/09 05:51:44;;;;;;;2.03;1.05;;;16.60;65.50;;;;;;5043348;28;20045;-49
2022/11/09 05:54:11;;;;;;;3.47;1.52;;;16.60;65.50;;;;;;5053292;28;20045;-49
2022/11/09 05:56:38;;;;;;;3.00;0.98;;;16.60;65.50;;;;;;5037562;28;20061;-48
2022/11/09 05:59:04;;;;;;;4.28;1.63;;;16.50;65.50;;;;;;5047247;28;20051;-48
2022/11/09 06:01:31;;;;;;;3.22;1.35;;;16.50;65.50;;;;;;5042628;28;20484;-48
2022/11/09 06:03:57;;;;;;;3.65;1.83;;;16.50;65.50;;;;;;5013396;28;20046;-48
2022/11/09 06:06:24;;;;;;;3.63;1.40;;;16.50;65.50;;;;;;5029211;28;20048;-51
2022/11/09 06:08:51;;;;;;;2.05;0.73;;;16.50;65.60;;;;;;5033378;28;20048;-51
2022/11/09 06:11:18;;;;;;;2.20;1.17;;;16.40;65.80;;;;;;5032633;28;20030;-48
2022/11/09 06:13:50;;;;;;;2.80;1.10;;;16.40;65.90;;;;;;5034299;28;20413;-49
2022/11/09 06:16:17;;;;;;;3.42;1.05;;;16.40;66.00;;;;;;5031749;28;20033;-51
2022/11/09 06:18:44;;;;;;;3.10;1.10;;;16.40;66.00;;;;;;5043488;28;20123;-49
2022/11/09 06:21:10;;;;;;;3.97;1.10;;;16.40;65.90;;;;;;5033491;28;20056;-49
2022/11/09 06:23:37;;;;;;;5.32;1.85;;;16.30;65.80;;;;;;5028728;28;20048;-50
2022/11/09 06:26:08;;;;;;;3.78;1.38;;;16.30;65.80;;;;;;5037975;28;20443;-52
2022/11/09 06:28:41;;;;;;;2.50;1.15;;;16.30;65.70;;;;;;5044619;28;20405;-49
2022/11/09 06:31:12;;;;;;;1.77;1.13;;;16.30;65.80;;;;;;5053078;28;20049;-49
2022/11/09 06:33:39;;;;;;;4.60;1.00;;;16.20;65.70;;;;;;5035497;28;20573;-49
2022/11/09 06:36:10;;;;;;;3.17;1.15;;;16.20;65.70;;;;;;5037765;28;20033;-48
2022/11/09 06:38:36;;;;;;;3.40;0.52;;;16.10;65.80;;;;;;5037272;28;20046;-49
2022/11/09 06:41:03;;;;;;;4.97;1.25;;;16.10;65.90;;;;;;5028771;28;20074;-48
2022/11/09 06:43:30;;;;;;;3.28;1.10;;;16.00;65.90;;;;;;5031240;28;20055;-49
2022/11/09 06:45:57;;;;;;;7.03;1.15;;;16.00;66.10;;;;;;5039651;28;20041;-48
2022/11/09 06:48:23;;;;;;;4.63;1.38;;;16.00;66.20;;;;;;5047707;28;20068;-49
2022/11/09 06:50:50;;;;;;;1.15;0.80;;;15.90;66.20;;;;;;5044733;28;20056;-49
2022/11/09 06:53:17;;;;;;;5.25;0.80;;;15.90;66.30;;;;;;5031599;28;20034;-51
2022/11/09 06:55:44;;;;;;;2.67;0.88;;;15.80;66.40;;;;;;5032508;28;20041;-48
2022/11/09 06:58:18;;;;;;;4.65;1.35;;;15.80;66.40;;;;;;5046362;28;20099;-52
2022/11/09 07:00:45;;;;;;;2.63;0.80;;;15.80;67.10;;;;;;5017461;28;20046;-49
2022/11/09 07:03:16;;;;;;;1.63;1.35;;;15.80;66.60;;;;;;5031400;28;20037;-50
2022/11/09 07:05:44;;;;;;;2.22;1.13;;;15.70;66.80;;;;;;5041689;28;20461;-48
2022/11/09 07:08:11;;;;;;;3.55;1.17;;;15.70;66.70;;;;;;5051691;28;20051;-50
2022/11/09 07:10:38;;;;;;;1.80;1.10;;;15.70;66.80;;;;;;5046597;28;20037;-51
2022/11/09 07:13:05;;;;;;;3.50;0.80;;;15.60;66.90;;;;;;5039392;28;20033;-49
2022/11/09 07:15:33;;;;;;;3.75;1.08;;;15.60;67.10;;;;;;5042624;28;20043;-52
2022/11/09 07:18:01;;;;;;;3.00;0.93;;;15.60;67.20;;;;;;5031208;28;20116;-51
2022/11/09 07:20:29;;;;;;;1.58;0.75;;;15.60;67.30;;;;;;5025238;28;20060;-48
2022/11/09 07:22:56;;;;;;;1.30;0.75;;;15.60;67.40;;;;;;5030340;28;20091;-49
2022/11/09 07:25:26;;;;;;;1.40;0.55;;;15.60;67.40;;;;;;5031264;28;20038;-48
2022/11/09 07:27:52;;;;;;;2.42;1.05;;;15.60;67.40;;;;;;5044730;28;20037;-49
2022/11/09 07:30:19;;;;;;;4.57;1.05;;;15.60;67.40;;;;;;5046764;28;20123;-52
2022/11/09 07:32:45;;;;;;;4.10;1.13;;;15.60;67.50;;;;;;5051249;28;20044;-48
2022/11/09 07:35:32;;;;;;;3.20;1.10;;;15.60;67.60;;;;;;5031182;28;20029;-49
2022/11/09 07:38:00;;;;;;;1.63;0.90;;;15.60;67.50;;;;;;5042712;28;20045;-52
2022/11/09 07:40:27;;;;;;;4.50;1.27;;;15.60;67.60;;;;;;5029105;28;20045;-49
2022/11/09 07:43:02;;;;;;;1.80;0.65;;;15.60;67.60;;;;;;5043551;28;20042;-51
2022/11/09 07:45:30;;;;;;;3.28;1.10;;;15.60;68.60;;;;;;5029280;28;20076;-49
2022/11/09 07:48:00;;;;;;;2.53;0.75;;;15.60;67.70;;;;;;5032576;28;20041;-50
2022/11/09 07:50:30;;;;;;;2.08;1.10;;;15.60;67.90;;;;;;5042485;28;20493;-48
2022/11/09 07:52:59;;;;;;;3.20;0.90;;;15.60;67.80;;;;;;5034858;28;20041;-49
2022/11/09 07:55:27;;;;;;;3.05;0.80;;;15.60;67.90;;;;;;5050580;28;20070;-51
2022/11/09 07:58:02;;;;;;;2.47;0.82;;;15.60;68.00;;;;;;5030630;28;20047;-48
2022/11/09 08:00:33;;;;;;;0.90;0.77;;;15.50;68.60;;;;;;5042093;28;20047;-50
2022/11/09 08:03:02;;;;;;;2.90;0.90;;;15.60;68.10;;;;;;5035813;28;20045;-49
2022/11/09 08:05:29;;;;;;;2.05;0.70;;;15.60;68.10;;;;;;5027376;28;20136;-50
2022/11/09 08:07:58;;;;;;;3.05;1.00;;;15.60;68.10;;;;;;5035808;28;20064;-49
2022/11/09 08:10:26;;;;;;;1.73;1.00;;;15.60;68.20;;;;;;5042861;28;20037;-49
2022/11/09 08:13:12;;;;;;;2.22;0.80;;;15.60;68.30;;;;;;5047323;28;20037;-48
2022/11/09 08:15:40;;;;;;;3.25;1.27;;;15.60;68.30;;;;;;5033794;28;20124;-48
2022/11/09 08:18:12;;;;;;;3.92;0.90;;;15.60;68.30;;;;;;5030123;28;20033;-51
2022/11/09 08:20:39;;;;;;;3.10;1.33;;;15.50;68.40;;;;;;5039499;28;20701;-50
2022/11/09 08:23:05;;;;;;;2.55;1.25;;;15.60;68.30;;;;;;5048053;28;20055;-49
2022/11/09 08:25:33;;;;;;;2.72;1.05;;;15.50;68.30;;;;;;5032751;28;20410;-51
2022/11/09 08:28:00;;;;;;;4.80;1.42;;;15.60;68.40;;;;;;5043684;28;20133;-48
2022/11/09 08:30:28;;;;;;;3.33;1.50;;;15.60;68.50;;;;;;5045309;28;20405;-49
2022/11/09 08:32:54;;;;;;;3.55;1.50;;;15.60;68.40;;;;;;5050145;28;20049;-49
2022/11/09 08:35:23;;;;;;;1.70;1.10;;;15.60;68.30;;;;;;5027585;28;20037;-52
2022/11/09 08:37:53;;;;;;;2.40;1.15;;;15.60;68.30;;;;;;5044429;28;20038;-53
2022/11/09 08:40:24;;;;;;;3.72;1.08;;;15.60;68.20;;;;;;5045040;28;20045;-53
2022/11/09 08:42:52;;;;;;;2.88;0.90;;;15.70;68.30;;;;;;5049796;28;20051;-52
2022/11/09 08:45:19;;;;;;;2.63;1.05;;;15.70;68.20;;;;;;5025391;28;20047;-53
2022/11/09 08:47:46;;;;;;;2.38;0.90;;;15.70;68.20;;;;;;5040067;28;20410;-52
2022/11/09 08:50:14;;;;;;;2.70;0.95;;;15.70;68.20;;;;;;5043798;28;20119;-50
2022/11/09 08:52:41;;;;;;;1.40;1.13;;;15.80;68.20;;;;;;5033639;28;20681;-53
2022/11/09 08:55:08;;;;;;;6.93;1.77;;;15.80;68.10;;;;;;5031689;28;20033;-52
2022/11/09 08:57:34;;;;;;;3.50;0.98;;;15.80;68.00;;;;;;5044574;28;20055;-52
2022/11/09 09:00:01;;;;;;;3.78;0.93;;;15.80;67.90;;;;;;5030067;28;20524;-52
2022/11/09 09:02:29;;;;;;;2.90;0.90;;;15.90;67.80;;;;;;5029607;28;20041;-53
2022/11/09 09:04:56;;;;;;;3.70;1.23;;;15.90;67.70;;;;;;5028029;28;20041;-51
2022/11/09 09:07:22;;;;;;;3.47;0.88;;;15.90;67.60;;;;;;5028908;28;20042;-53
2022/11/09 09:09:49;;;;;;;4.60;1.00;;;16.00;67.40;;;;;;5048033;28;20048;-54
2022/11/09 09:12:16;;;;;;;3.88;0.88;;;16.10;68.00;;;;;;5025689;28;20034;-50
2022/11/09 09:14:43;;;;;;;4.93;1.20;;;16.10;67.10;;;;;;5037686;28;20038;-48
2022/11/09 09:17:09;;;;;;;3.92;1.13;;;16.20;67.00;;;;;;5035490;28;20040;-53
2022/11/09 09:19:36;;;;;;;3.72;1.60;;;16.20;66.80;;;;;;5029169;28;20029;-50
2022/11/09 09:22:02;;;;;;;3.83;1.02;;;16.20;66.60;;;;;;5023615;28;20037;-50
2022/11/09 09:24:29;;;;;;;3.92;1.90;;;16.30;66.50;;;;;;5045474;28;20383;-49
2022/11/09 09:26:56;;;;;;;3.13;0.80;;;16.30;66.20;;;;;;5053109;22;20056;-51
2022/11/09 09:29:23;;;;;;;3.67;1.42;;;16.30;66.20;;;;;;5050673;28;20041;-51
2022/11/09 09:31:49;;;;;;;2.05;1.02;;;16.30;66.00;;;;;;5034564;28;20048;-48
2022/11/09 09:34:16;;;;;;;3.67;0.88;;;16.40;65.60;;;;;;5037586;28;20037;-48
2022/11/09 09:36:43;;;;;;;4.95;1.50;;;16.40;65.50;;;;;;5030401;28;20049;-49
2022/11/09 09:39:14;;;;;;;5.70;1.20;;;16.40;65.40;;;;;;5030599;28;20048;-48
2022/11/09 09:41:53;;;;;;;3.65;1.20;;;16.40;65.30;;;;;;5013181;28;20061;-52
2022/11/09 09:44:38;;;;;;;3.78;1.10;;;16.50;65.20;;;;;;5027488;28;20041;-52
2022/11/09 09:47:12;;;;;;;4.05;0.90;;;16.50;65.20;;;;;;4989724;28;20046;-48
2022/11/09 09:49:51;;;;;;;3.85;1.10;;;16.50;64.90;;;;;;5003288;28;20049;-52
2022/11/09 09:52:39;;;;;;;2.75;1.35;;;16.60;64.80;;;;;;5017842;28;20049;-51
2022/11/09 09:55:38;;;;;;;3.38;1.23;;;16.60;64.20;;;;;;5016401;28;20133;-48
2022/11/09 09:58:17;;;;;;;3.33;0.90;;;16.60;64.10;;;;;;5029280;28;20129;-53
2022/11/09 10:00:45;;;;;;;3.58;1.05;;;16.60;63.90;;;;;;5012509;28;20075;-51
2022/11/09 10:03:18;;;;;;;2.78;1.00;;;16.70;64.10;;;;;;5029337;28;20041;-50
2022/11/09 10:06:13;;;;;;;4.13;1.25;;;16.70;63.60;;;;;;5029758;28;20041;-49
2022/11/09 10:09:03;;;;;;;7.32;1.40;;;16.70;63.10;;;;;;4996024;28;20099;-52
2022/11/09 10:11:47;;;;;;;2.63;1.35;;;16.80;63.40;;;;;;5021777;28;20486;-52
2022/11/09 10:14:20;;;;;;;2.33;1.00;;;16.80;63.30;;;;;;5021950;28;20050;-52
2022/11/09 10:16:54;;;;;;;;;;;16.80;63.20;;;;;;5022154;28;20554;-51
2022/11/09 10:20:20;;;;;;;4.78;1.40;;;16.90;63.60;;;;;;5003219;28;20282;-51
2022/11/09 10:23:07;;;;;;;3.38;1.00;;;17.00;63.00;;;;;;4998253;28;20066;-52
2022/11/09 10:25:37;;;;;;;2.60;0.80;;;17.00;62.80;;;;;;5032138;28;20111;-52
2022/11/09 10:28:27;;;;;;;4.32;1.20;;;17.00;62.60;;;;;;5016702;28;20038;-52
2022/11/09 10:31:20;;;;;;;4.50;0.70;;;17.10;62.60;;;;;;5006694;28;20035;-50
2022/11/09 10:33:54;;;;;;;2.75;0.73;;;17.00;62.20;;;;;;5029851;28;20046;-52
2022/11/09 10:36:32;;;;;;;1.58;0.75;;;17.10;62.30;;;;;;5024465;28;20057;-51
2022/11/09 10:39:00;;;;;;;2.33;0.80;;;17.10;62.00;;;;;;5012816;28;20037;-49
2022/11/09 10:41:45;;;;;;;4.43;0.85;;;17.10;61.80;;;;;;5017731;28;20068;-51
2022/11/09 10:44:30;;;;;;;6.93;0.82;;;17.10;61.70;;;;;;5033165;28;20045;-53
2022/11/09 10:47:17;;;;;;;3.70;1.30;;;17.10;61.40;;;;;;5015373;28;20179;-53
2022/11/09 10:50:21;;;;;;;2.85;0.93;;;17.10;61.30;;;;;;5024690;28;20059;-51
2022/11/09 10:53:21;;;;;;;5.43;0.98;;;17.20;60.70;;;;;;4993365;28;20048;-53
2022/11/09 10:56:14;;;;;;;1.00;0.52;;;17.20;60.60;;;;;;5013377;28;20060;-53
2022/11/09 10:59:43;;;;;;;4.05;1.30;;;17.10;60.40;;;;;;5017619;28;20052;-52
2022/11/09 11:02:40;;;;;;;3.03;1.48;;;17.20;60.40;;;;;;5020889;28;20133;-55
2022/11/09 11:05:28;;;;;;;2.50;1.50;;;17.20;60.40;;;;;;5017720;28;20060;-54
2022/11/09 11:08:30;;;;;;;2.47;0.90;;;17.20;60.60;;;;;;4999767;28;20109;-54
2022/11/09 11:11:27;;;;;;;6.57;1.13;;;17.20;60.60;;;;;;4993709;28;20717;-54
2022/11/09 11:14:33;;;;;;;2.13;1.00;;;17.20;60.50;;;;;;5019454;28;20061;-54
2022/11/09 11:17:27;;;;;;;2.85;0.88;;;17.20;60.50;;;;;;5008230;28;20536;-54
2022/11/09 11:20:24;;;;;;;2.55;1.00;;;17.20;60.40;;;;;;5007844;28;20057;-53
2022/11/09 11:23:13;;;;;;;3.20;1.15;;;17.20;60.00;;;;;;5008273;28;20052;-54
2022/11/09 11:26:23;;;;;;;4.15;1.20;;;17.20;60.20;;;;;;5023185;28;20520;-54
2022/11/09 11:29:26;;;;;;;5.65;1.35;;;17.20;59.90;;;;;;5017901;28;20553;-54
2022/11/09 11:32:15;;;;;;;4.75;1.35;;;17.30;59.80;;;;;;5016547;28;20065;-54
2022/11/09 11:35:03;;;;;;;3.60;1.23;;;17.30;59.80;;;;;;5014440;28;20434;-54
2022/11/09 11:38:23;;;;;;;6.10;1.02;;;17.30;59.90;;;;;;5004012;28;20048;-54
2022/11/09 11:41:34;;;;;;;3.28;0.80;;;17.30;59.60;;;;;;4997870;28;20115;-54
2022/11/09 11:44:50;;;;;;;2.83;0.90;;;17.40;59.60;;;;;;5011841;28;20105;-54
2022/11/09 11:48:25;;;;;;;2.97;0.90;;;17.50;59.10;;;;;;5004478;28;20521;-54
2022/11/09 11:51:29;;;;;;;3.80;1.23;;;17.50;59.10;;;;;;5001411;28;20049;-54
2022/11/09 11:54:44;;;;;;;5.53;1.08;;;17.50;59.10;;;;;;5009512;28;20418;-51
2022/11/09 11:57:51;;;;;;;3.53;0.90;;;17.50;59.00;;;;;;5032382;28;20048;-54
2022/11/09 12:01:14;;;;;;;2.28;1.05;;;17.60;58.50;;;;;;5026539;28;20049;-53
2022/11/09 12:04:02;;;;;;;5.03;1.00;;;17.60;58.80;;;;;;5008028;28;20441;-54
2022/11/09 12:07:10;;;;;;;5.32;1.60;;;17.60;59.00;;;;;;5031740;28;20568;-53
2022/11/09 12:10:27;;;;;;;4.18;1.45;;;17.60;58.50;;;;;;5022645;28;20179;-54
2022/11/09 12:13:15;;;;;;;4.72;1.38;;;17.60;58.60;;;;;;5019450;28;20072;-54
2022/11/09 12:16:26;;;;;;;3.47;1.00;;;17.60;58.80;;;;;;4996588;28;20053;-55
2022/11/09 12:19:41;;;;;;;2.22;1.40;;;17.60;58.50;;;;;;5007784;28;20096;-54
2022/11/09 12:22:35;;;;;;;3.08;1.05;;;17.70;58.50;;;;;;5012279;28;20056;-55
2022/11/09 12:25:30;;;;;;;5.63;0.90;;;17.70;58.70;;;;;;5021845;28;20056;-51
2022/11/09 12:28:33;;;;;;;4.95;1.33;;;17.70;58.60;;;;;;5021090;28;20072;-54
2022/11/09 12:31:23;;;;;;;;;;;17.80;58.20;;;;;;5017675;28;20612;-54
2022/11/09 12:34:27;;;;;;;3.13;1.27;;;17.80;58.80;;;;;;5030438;28;19932;-51
2022/11/09 12:37:16;;;;;;;2.47;0.90;;;17.80;58.20;;;;;;5017862;28;20057;-54
2022/11/09 12:40:37;;;;;;;3.13;1.30;;;17.80;58.80;;;;;;5019041;28;20115;-53
2022/11/09 12:43:53;;;;;;;4.30;1.05;;;17.90;58.20;;;;;;5016234;28;20080;-55
2022/11/09 12:46:47;;;;;;;2.83;0.80;;;18.00;58.30;;;;;;5004209;28;20152;-54
2022/11/09 12:49:41;;;;;;;3.83;0.90;;;18.00;58.20;;;;;;5012397;28;20152;-54
2022/11/09 12:52:28;;;;;;;3.22;1.15;;;18.00;57.60;;;;;;5021005;28;20435;-53
2022/11/09 12:55:16;;;;;;;1.75;1.02;;;18.00;57.70;;;;;;4994163;28;20069;-54
2022/11/09 12:58:01;;;;;;;4.78;1.50;;;18.00;57.90;;;;;;5002988;28;20052;-54
2022/11/09 13:00:49;;;;;;;5.45;1.05;;;18.00;57.80;;;;;;5024153;28;20701;-53
2022/11/09 13:03:38;;;;;;;4.20;1.00;;;18.00;57.60;;;;;;5030769;28;20107;-53
2022/11/09 13:06:26;;;;;;;4.82;1.10;;;18.00;57.60;;;;;;5025614;28;20049;-54
2022/11/09 13:09:14;;;;;;;4.70;1.00;;;18.00;57.30;;;;;;5004499;28;20057;-52
2022/11/09 13:12:17;;;;;;;2.45;0.90;;;18.10;57.30;;;;;;5031173;28;20047;-54
2022/11/09 13:15:35;;;;;;;4.25;1.15;;;18.10;56.70;;;;;;5023043;28;20052;-54
2022/11/09 13:18:24;;;;;;;4.07;1.25;;;18.10;56.90;;;;;;5004296;28;20053;-53
2022/11/09 13:21:22;;;;;;;6.68;0.98;;;18.10;56.70;;;;;;5017993;28;20055;-54
2022/11/09 13:24:29;;;;;;;6.75;2.00;;;18.00;57.10;;;;;;5010273;28;20056;-53
2022/11/09 13:27:35;;;;;;;3.78;1.33;;;18.00;56.70;;;;;;5017968;28;20413;-52
2022/11/09 13:30:23;;;;;;;5.63;1.15;;;18.00;57.10;;;;;;5008711;28;20135;-54
2022/11/09 13:33:18;;;;;;;4.78;1.20;;;17.90;57.60;;;;;;5009938;28;20053;-53